ソチ の空港の天気 - METARとTAF

ソチ空港 ( URSS / AER ) - ロシア ソチ
飛行場実況気象(Metar)
観測時間12/14 09:00 MSK (12/14 06:00 UTC)
風向・風速東南東 3m/s
視程10km以上
天気現象周辺で雷 弱いしゅう雨
全天の4割程度の雲 雲底高度 640m
全天を覆う雲 雲底高度 1100m
気温6℃
湿度76%
気圧1025hPa
METARURSS 140600Z 11003MPS 040V150 9999 VCTS -SHRA SCT021 OVC036CB 06/02 Q1025 R06/290055 R02/290055 TEMPO 2000 SHSNGSRA BKN007 BKN020CB RMK R02/08002G05MPS MT OBSC QFE768
過去の天気等 Google飛行場航空写真 Wunderground天気予報

過去48時間のMETAR

飛行場予報(TAF)
発表時間: 12/14 07:58 MSK (12/14 04:58 UTC)
予報対象時間: 14日9時 MSK ~ 15日9時 MSK
風向・風速東北東 5m/s
視程10km以上
全天の8割程度の積乱雲 雲底高度 910m
全天を覆う雲 雲底高度 3050m
14日9時 MSK ~ 14日12時 MSK に一時的に
風向・風速不定 6m/s 瞬間風速 11m/s
視程2100m
天気現象弱い雷雨あられ
全天の8割程度の雲 雲底高度 340m
全天の8割程度の積乱雲 雲底高度 610m
全天を覆う雲 雲底高度 3050m
14日12時 MSK から
風向・風速南東 6m/s 瞬間風速 11m/s
視程10km以上
全天の4割程度の積乱雲 雲底高度 910m
全天を覆う雲 雲底高度 3050m
14日12時 MSK ~ 14日17時 MSK に一時的に
風向・風速北東 5m/s
視程3100m
天気現象弱いしゅう雨あられ
全天の8割程度の雲 雲底高度 340m
全天の8割程度の積乱雲 雲底高度 910m
全天を覆う雲 雲底高度 3050m
14日17時 MSK から
風向・風速北東 5m/s
視程10km以上
全天の4割程度の積乱雲 雲底高度 1220m
全天を覆う雲 雲底高度 3050m
14日17時 MSK ~ 15日9時 MSK に一時的に
風向・風速不定 1m/s
天気現象弱いしゅう雨
TAF URSS 140458Z 1406/1506 06005MPS 9999 BKN030CB OVC100
TEMPO 1406/1409 VRB06G11MPS 2100 -TSRAGS BKN011 BKN020CB OVC100
FM140900 14006G11MPS 9999 SCT030CB OVC100
TEMPO 1409/1414 05005MPS 3100 -SHRAGS BKN011 BKN030CB OVC100
FM141400 05005MPS 9999 SCT040CB OVC100
TEMPO 1414/1506 VRB01MPS -SHRA